sensor_id;sensor_type;location;lat;lon;timestamp;pressure;altitude;pressure_sealevel;temperature;humidity
37170;BME280;23062;13.952;100.608;2023-04-15T00:00:06;1008.32;;;32.82;63.68
37170;BME280;23062;13.952;100.608;2023-04-15T00:04:32;1008.37;;;32.79;63.21
37170;BME280;23062;13.952;100.608;2023-04-15T00:09:00;1008.46;;;32.74;63.13
37170;BME280;23062;13.952;100.608;2023-04-15T00:13:25;1008.48;;;32.74;63.24
37170;BME280;23062;13.952;100.608;2023-04-15T00:17:53;1008.51;;;32.68;62.57
37170;BME280;23062;13.952;100.608;2023-04-15T00:22:27;1008.65;;;32.50;64.36
37170;BME280;23062;13.952;100.608;2023-04-15T00:26:53;1008.66;;;32.39;63.42
37170;BME280;23062;13.952;100.608;2023-04-15T00:31:19;1008.75;;;32.41;63.22
37170;BME280;23062;13.952;100.608;2023-04-15T00:35:44;1008.86;;;32.42;63.00
37170;BME280;23062;13.952;100.608;2023-04-15T00:40:11;1008.86;;;32.43;62.83
37170;BME280;23062;13.952;100.608;2023-04-15T00:44:38;1008.97;;;32.41;62.77
37170;BME280;23062;13.952;100.608;2023-04-15T00:49:04;1009.04;;;32.52;62.54
37170;BME280;23062;13.952;100.608;2023-04-15T00:53:29;1009.07;;;32.59;62.03
37170;BME280;23062;13.952;100.608;2023-04-15T00:57:59;1009.06;;;32.58;62.00
37170;BME280;23062;13.952;100.608;2023-04-15T01:02:24;1009.12;;;32.65;61.81
37170;BME280;23062;13.952;100.608;2023-04-15T01:06:50;1009.16;;;32.65;61.90
37170;BME280;23062;13.952;100.608;2023-04-15T01:11:15;1009.27;;;32.75;61.96
37170;BME280;23062;13.952;100.608;2023-04-15T01:15:41;1009.26;;;32.78;61.89
37170;BME280;23062;13.952;100.608;2023-04-15T01:20:07;1009.29;;;32.80;62.11
37170;BME280;23062;13.952;100.608;2023-04-15T01:24:37;1009.35;;;32.81;62.28
37170;BME280;23062;13.952;100.608;2023-04-15T01:29:03;1009.47;;;32.85;62.28
37170;BME280;23062;13.952;100.608;2023-04-15T01:33:30;1009.54;;;32.91;61.84
37170;BME280;23062;13.952;100.608;2023-04-15T01:37:58;1009.59;;;32.97;61.74
37170;BME280;23062;13.952;100.608;2023-04-15T01:42:23;1009.63;;;33.03;61.74
37170;BME280;23062;13.952;100.608;2023-04-15T01:46:48;1009.65;;;32.80;62.83
37170;BME280;23062;13.952;100.608;2023-04-15T01:51:13;1009.69;;;32.72;63.49
37170;BME280;23062;13.952;100.608;2023-04-15T01:55:38;1009.74;;;32.75;63.71
37170;BME280;23062;13.952;100.608;2023-04-15T02:00:03;1009.74;;;32.75;63.66
37170;BME280;23062;13.952;100.608;2023-04-15T02:04:30;1009.79;;;32.81;63.97
37170;BME280;23062;13.952;100.608;2023-04-15T02:08:55;1009.81;;;32.83;64.05
37170;BME280;23062;13.952;100.608;2023-04-15T02:13:21;1009.88;;;32.87;64.40
37170;BME280;23062;13.952;100.608;2023-04-15T02:17:46;1009.86;;;32.84;64.89
37170;BME280;23062;13.952;100.608;2023-04-15T02:22:20;1009.85;;;32.89;64.76
37170;BME280;23062;13.952;100.608;2023-04-15T02:26:45;1009.82;;;32.90;64.85
37170;BME280;23062;13.952;100.608;2023-04-15T02:31:10;1009.84;;;32.95;65.45
37170;BME280;23062;13.952;100.608;2023-04-15T02:35:35;1009.81;;;32.96;65.64
37170;BME280;23062;13.952;100.608;2023-04-15T02:40:01;1009.84;;;33.03;65.78
37170;BME280;23062;13.952;100.608;2023-04-15T02:44:27;1009.80;;;33.03;65.39
37170;BME280;23062;13.952;100.608;2023-04-15T02:48:55;1009.85;;;33.03;65.33
37170;BME280;23062;13.952;100.608;2023-04-15T02:53:25;1009.86;;;33.06;64.91
37170;BME280;23062;13.952;100.608;2023-04-15T02:57:51;1009.89;;;33.08;64.58
37170;BME280;23062;13.952;100.608;2023-04-15T03:02:20;1009.88;;;33.10;64.43
37170;BME280;23062;13.952;100.608;2023-04-15T03:06:45;1009.85;;;33.12;64.17
37170;BME280;23062;13.952;100.608;2023-04-15T03:11:10;1009.75;;;33.17;64.18
37170;BME280;23062;13.952;100.608;2023-04-15T03:15:35;1009.70;;;33.25;64.12
37170;BME280;23062;13.952;100.608;2023-04-15T03:20:05;1009.60;;;33.30;63.67
37170;BME280;23062;13.952;100.608;2023-04-15T03:24:33;1009.57;;;33.36;63.90
37170;BME280;23062;13.952;100.608;2023-04-15T03:28:58;1009.52;;;33.38;63.50
37170;BME280;23062;13.952;100.608;2023-04-15T03:33:23;1009.45;;;33.40;63.42
37170;BME280;23062;13.952;100.608;2023-04-15T03:37:48;1009.37;;;33.45;63.15
37170;BME280;23062;13.952;100.608;2023-04-15T03:42:16;1009.30;;;33.46;62.82
37170;BME280;23062;13.952;100.608;2023-04-15T03:46:41;1009.20;;;33.44;62.76
37170;BME280;23062;13.952;100.608;2023-04-15T03:51:06;1009.16;;;33.46;62.51
37170;BME280;23062;13.952;100.608;2023-04-15T03:55:32;1009.09;;;33.46;62.19
37170;BME280;23062;13.952;100.608;2023-04-15T03:59:57;1009.06;;;33.45;62.33
37170;BME280;23062;13.952;100.608;2023-04-15T04:04:25;1008.95;;;33.49;62.38
37170;BME280;23062;13.952;100.608;2023-04-15T04:08:52;1008.87;;;33.55;62.37
37170;BME280;23062;13.952;100.608;2023-04-15T04:13:17;1008.83;;;33.58;62.09
37170;BME280;23062;13.952;100.608;2023-04-15T04:17:42;1008.69;;;33.58;61.57
37170;BME280;23062;13.952;100.608;2023-04-15T04:22:09;1008.55;;;33.65;61.15
37170;BME280;23062;13.952;100.608;2023-04-15T04:26:37;1008.54;;;33.62;61.63
37170;BME280;23062;13.952;100.608;2023-04-15T04:31:03;1008.50;;;33.62;62.04
37170;BME280;23062;13.952;100.608;2023-04-15T04:35:28;1008.42;;;33.64;62.03
37170;BME280;23062;13.952;100.608;2023-04-15T04:39:58;1008.40;;;33.70;61.89
37170;BME280;23062;13.952;100.608;2023-04-15T04:44:23;1008.32;;;33.73;61.78
37170;BME280;23062;13.952;100.608;2023-04-15T04:48:48;1008.23;;;33.73;61.75
37170;BME280;23062;13.952;100.608;2023-04-15T04:53:13;1008.18;;;33.70;62.03
37170;BME280;23062;13.952;100.608;2023-04-15T04:57:41;1008.13;;;33.69;62.11
37170;BME280;23062;13.952;100.608;2023-04-15T05:02:10;1007.96;;;33.71;62.10
37170;BME280;23062;13.952;100.608;2023-04-15T05:06:35;1007.91;;;33.74;62.11
37170;BME280;23062;13.952;100.608;2023-04-15T05:11:03;1007.77;;;33.79;62.28
37170;BME280;23062;13.952;100.608;2023-04-15T05:15:35;1007.71;;;33.90;61.84
37170;BME280;23062;13.952;100.608;2023-04-15T05:20:04;1007.64;;;33.88;62.22
37170;BME280;23062;13.952;100.608;2023-04-15T05:24:29;1007.54;;;33.86;62.05
37170;BME280;23062;13.952;100.608;2023-04-15T05:28:54;1007.41;;;33.86;62.04
37170;BME280;23062;13.952;100.608;2023-04-15T05:33:18;1007.31;;;33.87;61.57
37170;BME280;23062;13.952;100.608;2023-04-15T05:37:43;1007.21;;;33.91;61.09
37170;BME280;23062;13.952;100.608;2023-04-15T05:42:08;1007.10;;;33.93;60.71
37170;BME280;23062;13.952;100.608;2023-04-15T05:46:33;1007.05;;;33.97;61.72
37170;BME280;23062;13.952;100.608;2023-04-15T05:50:59;1007.00;;;34.08;61.17
37170;BME280;23062;13.952;100.608;2023-04-15T05:55:23;1006.94;;;34.17;60.12
37170;BME280;23062;13.952;100.608;2023-04-15T05:59:49;1006.69;;;34.17;59.79
37170;BME280;23062;13.952;100.608;2023-04-15T06:04:15;1006.70;;;34.24;59.15
37170;BME280;23062;13.952;100.608;2023-04-15T06:08:40;1006.62;;;34.36;58.85
37170;BME280;23062;13.952;100.608;2023-04-15T06:13:05;1006.56;;;34.35;58.84
37170;BME280;23062;13.952;100.608;2023-04-15T06:17:31;1006.43;;;34.37;58.54
37170;BME280;23062;13.952;100.608;2023-04-15T06:21:58;1006.30;;;34.36;58.68
37170;BME280;23062;13.952;100.608;2023-04-15T06:26:24;1006.21;;;34.35;58.30
37170;BME280;23062;13.952;100.608;2023-04-15T06:30:51;1006.12;;;34.28;57.90
37170;BME280;23062;13.952;100.608;2023-04-15T06:35:17;1005.97;;;34.24;57.90
37170;BME280;23062;13.952;100.608;2023-04-15T06:39:42;1005.93;;;34.25;57.72
37170;BME280;23062;13.952;100.608;2023-04-15T06:44:07;1005.90;;;34.26;57.40
37170;BME280;23062;13.952;100.608;2023-04-15T06:48:32;1005.89;;;34.26;57.15
37170;BME280;23062;13.952;100.608;2023-04-15T06:52:57;1005.84;;;34.25;57.13
37170;BME280;23062;13.952;100.608;2023-04-15T06:57:26;1005.71;;;34.27;56.96
37170;BME280;23062;13.952;100.608;2023-04-15T07:01:51;1005.63;;;34.32;56.80
37170;BME280;23062;13.952;100.608;2023-04-15T07:06:16;1005.54;;;34.35;56.52
37170;BME280;23062;13.952;100.608;2023-04-15T07:10:41;1005.37;;;34.34;56.40
37170;BME280;23062;13.952;100.608;2023-04-15T07:15:06;1005.30;;;34.36;56.43
37170;BME280;23062;13.952;100.608;2023-04-15T07:19:32;1005.23;;;34.37;56.40
37170;BME280;23062;13.952;100.608;2023-04-15T07:23:56;1005.18;;;34.40;56.30
37170;BME280;23062;13.952;100.608;2023-04-15T07:28:21;1005.12;;;34.39;56.17
37170;BME280;23062;13.952;100.608;2023-04-15T07:32:46;1004.99;;;34.39;56.82
37170;BME280;23062;13.952;100.608;2023-04-15T07:37:11;1004.91;;;34.34;53.58
37170;BME280;23062;13.952;100.608;2023-04-15T07:41:36;1004.84;;;34.35;54.41
37170;BME280;23062;13.952;100.608;2023-04-15T07:46:01;1004.83;;;34.36;55.21
37170;BME280;23062;13.952;100.608;2023-04-15T07:50:26;1004.74;;;34.41;55.52
37170;BME280;23062;13.952;100.608;2023-04-15T07:54:58;1004.66;;;34.39;56.04
37170;BME280;23062;13.952;100.608;2023-04-15T07:59:22;1004.60;;;34.41;56.08
37170;BME280;23062;13.952;100.608;2023-04-15T08:03:47;1004.61;;;34.41;56.17
37170;BME280;23062;13.952;100.608;2023-04-15T08:08:12;1004.52;;;34.44;56.06
37170;BME280;23062;13.952;100.608;2023-04-15T08:12:37;1004.46;;;34.46;56.01
37170;BME280;23062;13.952;100.608;2023-04-15T08:17:02;1004.38;;;34.48;55.85
37170;BME280;23062;13.952;100.608;2023-04-15T08:21:27;1004.32;;;34.51;55.67
37170;BME280;23062;13.952;100.608;2023-04-15T08:25:53;1004.30;;;34.54;55.48
37170;BME280;23062;13.952;100.608;2023-04-15T08:30:18;1004.23;;;34.54;55.29
37170;BME280;23062;13.952;100.608;2023-04-15T08:34:44;1004.21;;;34.54;55.42
37170;BME280;23062;13.952;100.608;2023-04-15T08:39:12;1004.14;;;34.56;55.15
37170;BME280;23062;13.952;100.608;2023-04-15T08:43:41;1004.11;;;34.57;55.08
37170;BME280;23062;13.952;100.608;2023-04-15T08:48:05;1004.13;;;34.58;55.18
37170;BME280;23062;13.952;100.608;2023-04-15T08:52:31;1004.06;;;34.57;54.96
37170;BME280;23062;13.952;100.608;2023-04-15T08:56:57;1004.05;;;34.58;54.89
37170;BME280;23062;13.952;100.608;2023-04-15T09:01:24;1003.93;;;34.58;54.73
37170;BME280;23062;13.952;100.608;2023-04-15T09:05:50;1003.90;;;34.58;54.61
37170;BME280;23062;13.952;100.608;2023-04-15T09:10:15;1003.80;;;34.58;54.32
37170;BME280;23062;13.952;100.608;2023-04-15T09:14:41;1003.75;;;34.58;54.44
37170;BME280;23062;13.952;100.608;2023-04-15T09:23:33;1003.75;;;34.62;54.03
37170;BME280;23062;13.952;100.608;2023-04-15T09:27:59;1003.68;;;34.60;53.89
37170;BME280;23062;13.952;100.608;2023-04-15T09:32:25;1003.66;;;34.59;53.47
37170;BME280;23062;13.952;100.608;2023-04-15T09:36:56;1003.56;;;34.60;52.99
37170;BME280;23062;13.952;100.608;2023-04-15T09:41:20;1003.63;;;34.61;53.12
37170;BME280;23062;13.952;100.608;2023-04-15T09:45:51;1003.61;;;34.59;52.99
37170;BME280;23062;13.952;100.608;2023-04-15T09:50:19;1003.55;;;34.58;52.93
37170;BME280;23062;13.952;100.608;2023-04-15T09:54:46;1003.54;;;34.56;53.05
37170;BME280;23062;13.952;100.608;2023-04-15T09:59:11;1003.54;;;34.55;52.80
37170;BME280;23062;13.952;100.608;2023-04-15T10:03:36;1003.43;;;34.50;52.85
37170;BME280;23062;13.952;100.608;2023-04-15T10:08:04;1003.39;;;34.47;53.11
37170;BME280;23062;13.952;100.608;2023-04-15T10:12:30;1003.46;;;34.45;53.86
37170;BME280;23062;13.952;100.608;2023-04-15T10:16:56;1003.40;;;34.39;54.16
37170;BME280;23062;13.952;100.608;2023-04-15T10:21:22;1003.39;;;34.38;53.76
37170;BME280;23062;13.952;100.608;2023-04-15T10:25:47;1003.44;;;34.34;54.01
37170;BME280;23062;13.952;100.608;2023-04-15T10:30:13;1003.46;;;34.33;54.44
37170;BME280;23062;13.952;100.608;2023-04-15T10:34:41;1003.52;;;34.32;54.32
37170;BME280;23062;13.952;100.608;2023-04-15T10:44:03;1003.66;;;34.30;53.68
37170;BME280;23062;13.952;100.608;2023-04-15T10:48:30;1003.67;;;34.30;53.46
37170;BME280;23062;13.952;100.608;2023-04-15T10:52:56;1003.70;;;34.26;52.66
37170;BME280;23062;13.952;100.608;2023-04-15T10:57:22;1003.72;;;34.24;52.60
37170;BME280;23062;13.952;100.608;2023-04-15T11:01:52;1003.73;;;34.23;52.22
37170;BME280;23062;13.952;100.608;2023-04-15T11:06:17;1003.80;;;34.22;51.97
37170;BME280;23062;13.952;100.608;2023-04-15T11:15:32;1003.96;;;34.22;51.66
37170;BME280;23062;13.952;100.608;2023-04-15T11:20:01;1003.97;;;34.20;51.56
37170;BME280;23062;13.952;100.608;2023-04-15T11:24:26;1004.00;;;34.19;51.54
37170;BME280;23062;13.952;100.608;2023-04-15T11:28:51;1004.07;;;34.17;51.66
37170;BME280;23062;13.952;100.608;2023-04-15T11:33:17;1004.15;;;34.18;51.80
37170;BME280;23062;13.952;100.608;2023-04-15T11:37:42;1004.19;;;34.17;51.80
37170;BME280;23062;13.952;100.608;2023-04-15T11:42:17;1004.30;;;34.16;51.08
37170;BME280;23062;13.952;100.608;2023-04-15T11:46:42;1004.42;;;34.14;51.07
37170;BME280;23062;13.952;100.608;2023-04-15T11:51:07;1004.43;;;34.13;51.18
37170;BME280;23062;13.952;100.608;2023-04-15T11:55:40;1004.55;;;34.13;51.50
37170;BME280;23062;13.952;100.608;2023-04-15T12:00:08;1004.54;;;34.14;51.06
37170;BME280;23062;13.952;100.608;2023-04-15T12:04:32;1004.59;;;34.12;51.59
37170;BME280;23062;13.952;100.608;2023-04-15T12:13:30;1004.59;;;34.10;51.53
37170;BME280;23062;13.952;100.608;2023-04-15T12:17:54;1004.63;;;34.09;51.47
37170;BME280;23062;13.952;100.608;2023-04-15T12:22:20;1004.74;;;34.07;51.27
37170;BME280;23062;13.952;100.608;2023-04-15T12:26:53;1004.92;;;34.09;51.20
37170;BME280;23062;13.952;100.608;2023-04-15T12:31:20;1004.85;;;34.07;51.40
37170;BME280;23062;13.952;100.608;2023-04-15T12:35:46;1004.89;;;34.06;51.65
37170;BME280;23062;13.952;100.608;2023-04-15T12:40:11;1005.07;;;34.04;51.62
37170;BME280;23062;13.952;100.608;2023-04-15T12:44:44;1005.15;;;34.02;52.12
37170;BME280;23062;13.952;100.608;2023-04-15T12:49:09;1005.28;;;34.01;52.38
37170;BME280;23062;13.952;100.608;2023-04-15T12:53:36;1005.36;;;34.02;52.42
37170;BME280;23062;13.952;100.608;2023-04-15T12:58:01;1005.39;;;34.00;52.64
37170;BME280;23062;13.952;100.608;2023-04-15T13:02:26;1005.52;;;34.00;52.68
37170;BME280;23062;13.952;100.608;2023-04-15T13:06:51;1005.61;;;33.98;52.69
37170;BME280;23062;13.952;100.608;2023-04-15T13:11:20;1005.72;;;33.96;52.64
37170;BME280;23062;13.952;100.608;2023-04-15T13:15:45;1005.73;;;33.96;52.50
37170;BME280;23062;13.952;100.608;2023-04-15T13:20:10;1005.79;;;33.95;52.42
37170;BME280;23062;13.952;100.608;2023-04-15T13:24:35;1005.90;;;33.93;52.29
37170;BME280;23062;13.952;100.608;2023-04-15T13:29:01;1005.93;;;33.92;52.45
37170;BME280;23062;13.952;100.608;2023-04-15T13:33:27;1005.98;;;33.91;52.48
37170;BME280;23062;13.952;100.608;2023-04-15T13:37:53;1006.13;;;33.89;52.56
37170;BME280;23062;13.952;100.608;2023-04-15T13:42:23;1006.17;;;33.88;52.76
37170;BME280;23062;13.952;100.608;2023-04-15T13:46:48;1006.25;;;33.89;52.95
37170;BME280;23062;13.952;100.608;2023-04-15T13:51:15;1006.36;;;33.89;53.00
37170;BME280;23062;13.952;100.608;2023-04-15T13:55:40;1006.37;;;33.85;53.09
37170;BME280;23062;13.952;100.608;2023-04-15T14:00:07;1006.41;;;33.86;53.41
37170;BME280;23062;13.952;100.608;2023-04-15T14:04:35;1006.47;;;33.86;54.10
37170;BME280;23062;13.952;100.608;2023-04-15T14:09:01;1006.43;;;33.88;54.80
37170;BME280;23062;13.952;100.608;2023-04-15T14:13:26;1006.39;;;33.91;55.51
37170;BME280;23062;13.952;100.608;2023-04-15T14:17:52;1006.40;;;34.06;55.31
37170;BME280;23062;13.952;100.608;2023-04-15T14:22:17;1006.55;;;34.11;55.06
37170;BME280;23062;13.952;100.608;2023-04-15T14:26:43;1006.54;;;34.12;55.00
37170;BME280;23062;13.952;100.608;2023-04-15T14:31:07;1006.54;;;34.13;54.87
37170;BME280;23062;13.952;100.608;2023-04-15T14:35:32;1006.62;;;34.13;54.57
37170;BME280;23062;13.952;100.608;2023-04-15T14:39:57;1006.63;;;34.13;54.55
37170;BME280;23062;13.952;100.608;2023-04-15T14:44:30;1006.77;;;34.13;54.44
37170;BME280;23062;13.952;100.608;2023-04-15T14:48:57;1006.77;;;34.12;54.19
37170;BME280;23062;13.952;100.608;2023-04-15T14:53:22;1006.72;;;34.11;54.07
37170;BME280;23062;13.952;100.608;2023-04-15T14:57:48;1006.83;;;34.10;54.15
37170;BME280;23062;13.952;100.608;2023-04-15T15:02:20;1006.88;;;34.09;54.15
37170;BME280;23062;13.952;100.608;2023-04-15T15:06:45;1006.93;;;34.08;54.14
37170;BME280;23062;13.952;100.608;2023-04-15T15:11:10;1007.00;;;34.09;54.30
37170;BME280;23062;13.952;100.608;2023-04-15T15:15:36;1007.09;;;34.09;54.25
37170;BME280;23062;13.952;100.608;2023-04-15T15:20:01;1007.17;;;34.08;54.07
37170;BME280;23062;13.952;100.608;2023-04-15T15:24:29;1007.13;;;34.07;53.96
37170;BME280;23062;13.952;100.608;2023-04-15T15:28:54;1007.18;;;34.07;53.99
37170;BME280;23062;13.952;100.608;2023-04-15T15:33:19;1007.28;;;34.07;54.06
37170;BME280;23062;13.952;100.608;2023-04-15T15:37:45;1007.35;;;34.07;54.08
37170;BME280;23062;13.952;100.608;2023-04-15T15:42:09;1007.30;;;34.05;54.10
37170;BME280;23062;13.952;100.608;2023-04-15T15:46:37;1007.27;;;34.05;54.16
37170;BME280;23062;13.952;100.608;2023-04-15T15:51:02;1007.32;;;34.04;54.22
37170;BME280;23062;13.952;100.608;2023-04-15T15:55:28;1007.38;;;34.03;54.28
37170;BME280;23062;13.952;100.608;2023-04-15T15:59:52;1007.35;;;34.03;54.55
37170;BME280;23062;13.952;100.608;2023-04-15T16:04:18;1007.42;;;34.02;54.71
37170;BME280;23062;13.952;100.608;2023-04-15T16:08:44;1007.58;;;34.02;54.84
37170;BME280;23062;13.952;100.608;2023-04-15T16:13:09;1007.69;;;34.02;54.97
37170;BME280;23062;13.952;100.608;2023-04-15T16:17:37;1007.77;;;34.01;55.07
37170;BME280;23062;13.952;100.608;2023-04-15T16:22:02;1007.89;;;34.00;55.14
37170;BME280;23062;13.952;100.608;2023-04-15T16:26:27;1007.94;;;34.01;55.23
37170;BME280;23062;13.952;100.608;2023-04-15T16:30:53;1007.88;;;34.01;55.26
37170;BME280;23062;13.952;100.608;2023-04-15T16:35:21;1007.78;;;34.00;55.37
37170;BME280;23062;13.952;100.608;2023-04-15T16:39:46;1007.84;;;34.00;55.66
37170;BME280;23062;13.952;100.608;2023-04-15T16:44:11;1007.84;;;34.00;55.99
37170;BME280;23062;13.952;100.608;2023-04-15T16:48:35;1007.81;;;34.01;56.13
37170;BME280;23062;13.952;100.608;2023-04-15T16:53:03;1007.76;;;33.98;56.48
37170;BME280;23062;13.952;100.608;2023-04-15T16:57:30;1007.73;;;33.97;56.78
37170;BME280;23062;13.952;100.608;2023-04-15T17:01:55;1007.60;;;33.97;56.88
37170;BME280;23062;13.952;100.608;2023-04-15T17:06:21;1007.59;;;33.97;56.83
37170;BME280;23062;13.952;100.608;2023-04-15T17:10:46;1007.60;;;33.96;57.00
37170;BME280;23062;13.952;100.608;2023-04-15T17:15:11;1007.49;;;33.95;57.25
37170;BME280;23062;13.952;100.608;2023-04-15T17:19:37;1007.48;;;33.96;57.09
37170;BME280;23062;13.952;100.608;2023-04-15T17:24:07;1007.36;;;33.97;57.36
37170;BME280;23062;13.952;100.608;2023-04-15T17:28:32;1007.34;;;33.94;57.59
37170;BME280;23062;13.952;100.608;2023-04-15T17:33:00;1007.31;;;33.97;57.60
37170;BME280;23062;13.952;100.608;2023-04-15T17:37:25;1007.26;;;33.95;57.82
37170;BME280;23062;13.952;100.608;2023-04-15T17:41:51;1007.29;;;33.95;57.88
37170;BME280;23062;13.952;100.608;2023-04-15T17:46:15;1007.34;;;33.95;57.92
37170;BME280;23062;13.952;100.608;2023-04-15T17:50:42;1007.25;;;33.95;58.06
37170;BME280;23062;13.952;100.608;2023-04-15T17:55:08;1007.19;;;33.94;58.12
37170;BME280;23062;13.952;100.608;2023-04-15T17:59:33;1007.17;;;33.95;58.29
37170;BME280;23062;13.952;100.608;2023-04-15T18:03:57;1007.12;;;33.92;58.42
37170;BME280;23062;13.952;100.608;2023-04-15T18:08:23;1007.07;;;33.93;58.53
37170;BME280;23062;13.952;100.608;2023-04-15T18:12:48;1007.04;;;33.93;58.44
37170;BME280;23062;13.952;100.608;2023-04-15T18:17:12;1007.02;;;33.94;58.63
37170;BME280;23062;13.952;100.608;2023-04-15T18:21:37;1006.98;;;33.92;58.74
37170;BME280;23062;13.952;100.608;2023-04-15T18:26:08;1006.82;;;33.91;58.92
37170;BME280;23062;13.952;100.608;2023-04-15T18:30:33;1006.78;;;33.91;59.05
37170;BME280;23062;13.952;100.608;2023-04-15T18:34:59;1006.75;;;33.89;59.24
37170;BME280;23062;13.952;100.608;2023-04-15T18:39:27;1006.66;;;33.89;59.22
37170;BME280;23062;13.952;100.608;2023-04-15T18:43:52;1006.56;;;33.90;59.23
37170;BME280;23062;13.952;100.608;2023-04-15T18:48:20;1006.50;;;33.88;59.32
37170;BME280;23062;13.952;100.608;2023-04-15T18:52:46;1006.36;;;33.90;59.15
37170;BME280;23062;13.952;100.608;2023-04-15T18:57:11;1006.20;;;33.88;59.26
37170;BME280;23062;13.952;100.608;2023-04-15T19:01:36;1006.15;;;33.88;59.37
37170;BME280;23062;13.952;100.608;2023-04-15T19:06:01;1006.07;;;33.87;59.48
37170;BME280;23062;13.952;100.608;2023-04-15T19:10:26;1006.01;;;33.89;59.41
37170;BME280;23062;13.952;100.608;2023-04-15T19:14:51;1005.86;;;33.87;59.61
37170;BME280;23062;13.952;100.608;2023-04-15T19:19:16;1005.79;;;33.86;59.75
37170;BME280;23062;13.952;100.608;2023-04-15T19:23:42;1005.78;;;33.85;59.87
37170;BME280;23062;13.952;100.608;2023-04-15T19:28:08;1005.71;;;33.82;59.99
37170;BME280;23062;13.952;100.608;2023-04-15T19:32:33;1005.66;;;33.83;60.21
37170;BME280;23062;13.952;100.608;2023-04-15T19:37:05;1005.64;;;33.83;60.24
37170;BME280;23062;13.952;100.608;2023-04-15T19:41:30;1005.58;;;33.84;60.18
37170;BME280;23062;13.952;100.608;2023-04-15T19:45:56;1005.50;;;33.82;60.27
37170;BME280;23062;13.952;100.608;2023-04-15T19:50:21;1005.48;;;33.83;60.34
37170;BME280;23062;13.952;100.608;2023-04-15T19:54:47;1005.42;;;33.81;60.55
37170;BME280;23062;13.952;100.608;2023-04-15T19:59:13;1005.57;;;33.79;60.75
37170;BME280;23062;13.952;100.608;2023-04-15T20:03:38;1005.64;;;33.80;60.75
37170;BME280;23062;13.952;100.608;2023-04-15T20:08:03;1005.64;;;33.79;60.89
37170;BME280;23062;13.952;100.608;2023-04-15T20:12:28;1005.66;;;33.81;60.99
37170;BME280;23062;13.952;100.608;2023-04-15T20:16:53;1005.65;;;33.81;60.90
37170;BME280;23062;13.952;100.608;2023-04-15T20:21:18;1005.72;;;33.81;61.00
37170;BME280;23062;13.952;100.608;2023-04-15T20:25:44;1005.75;;;33.79;61.19
37170;BME280;23062;13.952;100.608;2023-04-15T20:30:09;1005.75;;;33.80;61.20
37170;BME280;23062;13.952;100.608;2023-04-15T20:34:37;1005.95;;;33.81;61.01
37170;BME280;23062;13.952;100.608;2023-04-15T20:39:05;1006.07;;;33.81;61.02
37170;BME280;23062;13.952;100.608;2023-04-15T20:43:30;1006.05;;;33.80;61.04
37170;BME280;23062;13.952;100.608;2023-04-15T20:47:55;1006.07;;;33.79;61.09
37170;BME280;23062;13.952;100.608;2023-04-15T20:52:20;1006.15;;;33.79;60.94
37170;BME280;23062;13.952;100.608;2023-04-15T20:56:47;1006.30;;;33.79;60.73
37170;BME280;23062;13.952;100.608;2023-04-15T21:01:14;1006.40;;;33.79;60.62
37170;BME280;23062;13.952;100.608;2023-04-15T21:05:39;1006.40;;;33.79;60.48
37170;BME280;23062;13.952;100.608;2023-04-15T21:10:04;1006.43;;;33.78;60.15
37170;BME280;23062;13.952;100.608;2023-04-15T21:14:30;1006.50;;;33.75;59.91
37170;BME280;23062;13.952;100.608;2023-04-15T21:18:55;1006.53;;;33.75;59.58
37170;BME280;23062;13.952;100.608;2023-04-15T21:23:20;1006.47;;;33.73;59.51
37170;BME280;23062;13.952;100.608;2023-04-15T21:27:45;1006.52;;;33.70;59.44
37170;BME280;23062;13.952;100.608;2023-04-15T21:32:18;1006.64;;;33.70;59.41
37170;BME280;23062;13.952;100.608;2023-04-15T21:36:47;1006.67;;;33.66;59.34
37170;BME280;23062;13.952;100.608;2023-04-15T21:41:12;1006.59;;;33.64;59.24
37170;BME280;23062;13.952;100.608;2023-04-15T21:45:38;1006.52;;;33.63;59.13
37170;BME280;23062;13.952;100.608;2023-04-15T21:50:14;1006.52;;;33.62;59.11
37170;BME280;23062;13.952;100.608;2023-04-15T21:54:41;1006.49;;;33.63;58.97
37170;BME280;23062;13.952;100.608;2023-04-15T21:59:06;1006.54;;;33.61;58.92
37170;BME280;23062;13.952;100.608;2023-04-15T22:03:33;1006.55;;;33.62;58.85
37170;BME280;23062;13.952;100.608;2023-04-15T22:07:58;1006.46;;;33.60;58.81
37170;BME280;23062;13.952;100.608;2023-04-15T22:12:24;1006.57;;;33.59;58.80
37170;BME280;23062;13.952;100.608;2023-04-15T22:16:52;1006.45;;;33.58;58.82
37170;BME280;23062;13.952;100.608;2023-04-15T22:21:18;1006.32;;;33.38;58.79
37170;BME280;23062;13.952;100.608;2023-04-15T22:25:50;1006.23;;;33.17;59.15
37170;BME280;23062;13.952;100.608;2023-04-15T22:30:14;1006.19;;;33.03;59.34
37170;BME280;23062;13.952;100.608;2023-04-15T22:34:40;1006.32;;;33.06;59.17
37170;BME280;23062;13.952;100.608;2023-04-15T22:39:05;1006.35;;;33.06;59.20
37170;BME280;23062;13.952;100.608;2023-04-15T22:43:30;1006.25;;;33.03;59.34
37170;BME280;23062;13.952;100.608;2023-04-15T22:47:55;1006.47;;;33.02;58.98
37170;BME280;23062;13.952;100.608;2023-04-15T22:52:20;1006.51;;;32.98;58.85
37170;BME280;23062;13.952;100.608;2023-04-15T22:56:47;1006.57;;;32.93;59.12
37170;BME280;23062;13.952;100.608;2023-04-15T23:01:19;1006.81;;;32.89;60.03
37170;BME280;23062;13.952;100.608;2023-04-15T23:05:43;1006.86;;;32.80;60.42
37170;BME280;23062;13.952;100.608;2023-04-15T23:10:09;1006.97;;;32.67;60.30
37170;BME280;23062;13.952;100.608;2023-04-15T23:14:34;1007.05;;;32.57;60.44
37170;BME280;23062;13.952;100.608;2023-04-15T23:18:59;1007.06;;;32.46;60.58
37170;BME280;23062;13.952;100.608;2023-04-15T23:23:24;1007.02;;;32.44;61.89
37170;BME280;23062;13.952;100.608;2023-04-15T23:27:49;1007.12;;;32.38;61.14